Hestrud (Nord, France) - 208 m
Donnes mto: Actuelle dimanche, 17/12/2017 05:05
Date Horaire Temp Out Temp. E. min Temp. E. max Temp. Sol 1 Hum Out Hum. Sol 1 Press Rain Wind Dir Dir Solar Ev.Tr. UV Hi Solar Rad Dew Point Windchill Wind (Gust)
17/12/2017 05:05 -0,9 C -0,9 C -0,9 C -1,1 C 98 % 68 cb 1022,3 hPa 0,0 mm 0,0 km/h (0 Bft) N 0 0 min 0,000 mm 0,0 UV-I 0 W/m -1,2 C -0,9 C 0,0 km/h (0 Bft)
17/12/2017 04:05 -0,7 C -0,8 C -0,7 C -1,1 C 97 % 68 cb 1022,0 hPa 0,0 mm 0,0 km/h (0 Bft) N 0 0 min 0,000 mm 0,0 UV-I 0 W/m -1,1 C -0,7 C 0,0 km/h (0 Bft)
17/12/2017 03:05 -0,1 C -0,1 C -0,1 C -0,6 C 97 % 68 cb 1021,9 hPa 0,0 mm 0,0 km/h (0 Bft) N 0 0 min 0,000 mm 0,0 UV-I 0 W/m -0,5 C -0,1 C 0,0 km/h (0 Bft)
17/12/2017 02:05 0,1 C 0,1 C 0,1 C 0,0 C 97 % 68 cb 1021,3 hPa 0,0 mm 0,0 km/h (0 Bft) N 0 0 min 0,000 mm 0,0 UV-I 0 W/m -0,3 C 0,1 C 0,0 km/h (0 Bft)
17/12/2017 01:05 -0,5 C -0,5 C -0,4 C -0,6 C 97 % 68 cb 1020,9 hPa 0,0 mm 0,0 km/h (0 Bft) N 0 0 min 0,000 mm 0,0 UV-I 0 W/m -0,9 C -0,5 C 0,0 km/h (0 Bft)
17/12/2017 00:05 -0,4 C -0,4 C -0,4 C -0,6 C 97 % 67 cb 1020,6 hPa 0,0 mm 0,0 km/h (0 Bft) N 0 0 min 0,000 mm 0,0 UV-I 0 W/m -0,8 C -0,4 C 0,0 km/h (0 Bft)
16/12/2017 23:05 -0,7 C -0,7 C -0,7 C -0,6 C 96 % 66 cb 1020,3 hPa 0,0 mm 4,8 km/h (1 Bft) SO 225 0 min 0,000 mm 0,0 UV-I 0 W/m -1,3 C -0,7 C 6,4 km/h (2 Bft)
16/12/2017 22:05 0,1 C 0,1 C 0,1 C -0,6 C 95 % 65 cb 1020,1 hPa 0,0 mm 4,8 km/h (1 Bft) O-SO 247 0 min 0,000 mm 0,0 UV-I 0 W/m -0,6 C 0,1 C 6,4 km/h (2 Bft)
16/12/2017 21:05 1,3 C 1,3 C 1,3 C 1,1 C 95 % 66 cb 1020,0 hPa 0,0 mm 6,4 km/h (2 Bft) O 270 0 min 0,000 mm 0,0 UV-I 0 W/m 0,6 C 1,3 C 12,9 km/h (3 Bft)
16/12/2017 20:05 1,1 C 1,1 C 1,1 C 0,6 C 96 % 65 cb 1019,4 hPa 0,0 mm 0,0 km/h (0 Bft) N 0 0 min 0,000 mm 0,0 UV-I 0 W/m 0,5 C 1,1 C 0,0 km/h (0 Bft)
16/12/2017 19:05 1,6 C 1,6 C 1,6 C 1,1 C 96 % 64 cb 1018,7 hPa 0,0 mm 4,8 km/h (1 Bft) O 270 0 min 0,000 mm 0,0 UV-I 0 W/m 1,0 C 1,6 C 9,7 km/h (2 Bft)
16/12/2017 18:05 2,1 C 2,1 C 2,1 C 1,7 C 95 % 64 cb 1018,1 hPa 0,0 mm 6,4 km/h (2 Bft) O 270 0 min 0,000 mm 0,0 UV-I 0 W/m 1,4 C 2,1 C 11,3 km/h (2 Bft)
16/12/2017 17:05 2,4 C 2,4 C 2,4 C 2,2 C 96 % 64 cb 1017,7 hPa 0,0 mm 9,7 km/h (2 Bft) O-NO 292 0 min 0,000 mm 0,0 UV-I 0 W/m 1,8 C -0,6 C 14,5 km/h (3 Bft)
16/12/2017 16:05 3,1 C 3,1 C 3,1 C 2,8 C 96 % 64 cb 1016,8 hPa 0,0 mm 6,4 km/h (2 Bft) O-SO 247 0 min 0,025 mm 0,0 UV-I 16 W/m 2,5 C 3,1 C 12,9 km/h (3 Bft)
16/12/2017 15:05 3,3 C 3,3 C 3,3 C 2,8 C 97 % 64 cb 1015,8 hPa 0,0 mm 8,0 km/h (2 Bft) O-NO 292 0 min 0,025 mm 0,0 UV-I 39 W/m 2,9 C 1,8 C 11,3 km/h (2 Bft)
16/12/2017 14:05 3,1 C 3,1 C 3,1 C 3,3 C 98 % 65 cb 1015,4 hPa 0,0 mm 4,8 km/h (1 Bft) O-NO 292 0 min 0,025 mm 0,0 UV-I 94 W/m 2,8 C 3,1 C 8,0 km/h (2 Bft)
16/12/2017 13:05 3,1 C 3,1 C 3,1 C 3,3 C 99 % 65 cb 1015,1 hPa 0,2 mm 8,0 km/h (2 Bft) O-NO 292 3 min 0,025 mm 0,0 UV-I 28 W/m 3,0 C 1,6 C 11,3 km/h (2 Bft)
16/12/2017 12:05 2,7 C 2,7 C 2,7 C 2,8 C 99 % 65 cb 1014,8 hPa 0,2 mm 8,0 km/h (2 Bft) O-NO 292 0 min 0,025 mm 0,0 UV-I 84 W/m 2,6 C 1,2 C 11,3 km/h (2 Bft)
16/12/2017 11:05 2,4 C 2,4 C 2,4 C 2,8 C 99 % 65 cb 1014,3 hPa 0,0 mm 4,8 km/h (1 Bft) O-NO 292 0 min 0,025 mm 0,0 UV-I 51 W/m 2,3 C 2,4 C 6,4 km/h (2 Bft)
16/12/2017 10:05 1,7 C 1,6 C 1,7 C 1,7 C 99 % 64 cb 1013,3 hPa 0,6 mm 0,0 km/h (0 Bft) N 0 0 min 0,000 mm 0,0 UV-I 30 W/m 1,6 C 1,7 C 0,0 km/h (0 Bft)
16/12/2017 09:05 2,1 C 2,1 C 2,1 C 2,2 C 99 % 65 cb 1012,0 hPa 1,0 mm 9,7 km/h (2 Bft) O-NO 292 0 min 0,000 mm 0,0 UV-I 28 W/m 2,0 C -0,9 C 14,5 km/h (3 Bft)
16/12/2017 08:05 1,9 C 1,9 C 1,9 C 1,7 C 99 % 67 cb 1010,8 hPa 0,4 mm 8,0 km/h (2 Bft) O 270 0 min 0,000 mm 0,0 UV-I 0 W/m 1,8 C 0,3 C 11,3 km/h (2 Bft)
16/12/2017 07:05 1,9 C 1,9 C 1,9 C 1,7 C 99 % 68 cb 1009,8 hPa 0,0 mm 8,0 km/h (2 Bft) O-NO 292 0 min 0,000 mm 0,0 UV-I 0 W/m 1,8 C 0,3 C 11,3 km/h (2 Bft)
16/12/2017 06:05 2,5 C 2,5 C 2,5 C 2,2 C 99 % 68 cb 1008,7 hPa 0,0 mm 6,4 km/h (2 Bft) NO 315 0 min 0,000 mm 0,0 UV-I 0 W/m 2,4 C 2,5 C 9,7 km/h (2 Bft)
16/12/2017 06:00 2,5 C 2,4 C 2,5 C 2,2 C 99 % 68 cb 1008,7 hPa 0,0 mm 11,3 km/h (2 Bft) O-NO 292 0 min 0,000 mm 0,0 UV-I 0 W/m 2,4 C -1,6 C 16,1 km/h (3 Bft)
_ Min-Heure 04:41 04:41 04:44 23:14 16:38 09:30 06:00 - 07:09 - - - - - - 23:17 07:41 07:09
Minimum _ -0,9 C -0,9 C -0,9 C -1,1 C 95 % 64 cb 1008,7 hPa - 0,0 km/h (0 Bft) - - - - - - -1,4 C -4,6 C 0,0 km/h (0 Bft)
_ Max-Heure 14:29 14:30 14:29 12:14 06:00 06:00 04:58 07:39 07:41 - - 12:21 11:00 06:00 12:22 14:29 14:35 07:41
Maximum _ 3,5 C 3,5 C 3,5 C 3,3 C 99 % 68 cb 1022,3 hPa 0,2 mm 14,5 km/h
O-NO (3 Bft)
- - 1 min 0,025 mm 0,0 UV-I 174 W/m 3,2 C 3,5 C 24,1 km/h
N (4 Bft)
Moyenne _ 1,5 C 1,5 C 1,5 C 1,2 C 97 % 66 cb 1016,5 hPa #2,4 mm 5,3 km/h (1 Bft) O-NO - #0 min. #0,000 mm 0,0 UV-I 0 W/m 1,1 C 0,5 C 8,4 km/h (2 Bft)